createdAt,value
2019-01-31T00:00:41.903Z,3.40
2019-01-31T00:03:24.792Z,3.43
2019-01-31T00:06:05.566Z,3.30
2019-01-31T00:09:02.241Z,4.05
2019-01-31T00:11:57.259Z,4.60
2019-01-31T00:14:44.631Z,1.90
2019-01-31T00:17:54.505Z,5.20
2019-01-31T00:21:00.953Z,5.13
2019-01-31T00:24:22.977Z,2.80
2019-01-31T00:27:29.270Z,3.07
2019-01-31T00:30:18.520Z,2.83
2019-01-31T00:33:04.360Z,2.77
2019-01-31T00:36:41.574Z,6.97
2019-01-31T00:39:57.344Z,5.17
2019-01-31T00:42:54.220Z,7.53
2019-01-31T00:45:28.219Z,4.43
2019-01-31T00:48:33.824Z,2.37
2019-01-31T00:51:12.003Z,3.77
2019-01-31T00:54:22.378Z,2.93
2019-01-31T00:57:38.271Z,5.70
2019-01-31T01:00:50.313Z,5.97
2019-01-31T01:03:38.592Z,3.63
2019-01-31T01:06:51.362Z,8.20
2019-01-31T01:09:44.573Z,8.90
2019-01-31T01:12:43.272Z,10.10
2019-01-31T01:15:42.489Z,10.83
2019-01-31T01:18:55.686Z,7.05
2019-01-31T01:21:38.931Z,7.73
2019-01-31T01:24:31.062Z,7.57
2019-01-31T01:27:53.482Z,10.95
2019-01-31T01:31:02.491Z,6.87
2019-01-31T01:34:09.544Z,7.10
2019-01-31T01:37:01.465Z,11.57
2019-01-31T01:40:26.783Z,19.70
2019-01-31T01:43:34.889Z,18.27
2019-01-31T01:46:39.853Z,12.33
2019-01-31T01:50:02.225Z,8.23
2019-01-31T01:53:05.731Z,18.43
2019-01-31T01:55:44.698Z,12.13
2019-01-31T01:58:25.868Z,15.27
2019-01-31T02:01:17.894Z,15.53
2019-01-31T02:04:13.725Z,10.73
2019-01-31T02:07:09.987Z,13.73
2019-01-31T02:10:42.222Z,10.53
2019-01-31T02:13:49.257Z,13.00
2019-01-31T02:16:51.672Z,10.07
2019-01-31T02:20:08.360Z,5.70
2019-01-31T02:23:16.575Z,7.63
2019-01-31T02:26:21.959Z,8.83
2019-01-31T02:29:12.444Z,6.97
2019-01-31T02:32:25.288Z,4.57
2019-01-31T02:35:34.069Z,6.50
2019-01-31T02:38:24.760Z,5.93
2019-01-31T02:41:35.838Z,10.60
2019-01-31T02:44:41.284Z,5.77
2019-01-31T02:47:48.377Z,4.23
2019-01-31T02:50:43.643Z,4.27
2019-01-31T02:54:03.424Z,5.15
2019-01-31T02:56:54.714Z,3.67
2019-01-31T02:59:50.642Z,5.13
2019-01-31T03:02:43.760Z,3.50
2019-01-31T03:06:06.534Z,5.33
2019-01-31T03:08:47.328Z,7.47
2019-01-31T03:11:49.206Z,5.40
2019-01-31T03:14:30.334Z,4.90
2019-01-31T03:17:32.456Z,5.70
2019-01-31T03:21:06.663Z,5.83
2019-01-31T03:24:08.858Z,7.60
2019-01-31T03:27:10.734Z,6.57
2019-01-31T03:30:18.501Z,3.43
2019-01-31T03:33:23.418Z,5.30
2019-01-31T03:36:18.694Z,4.22
2019-01-31T03:39:16.599Z,5.70
2019-01-31T03:42:05.153Z,6.43
2019-01-31T03:44:55.456Z,4.07
2019-01-31T03:47:54.306Z,4.70
2019-01-31T03:51:08.215Z,3.17
2019-01-31T03:53:51.813Z,5.67
2019-01-31T03:56:42.966Z,4.00
2019-01-31T03:59:22.257Z,4.53
2019-01-31T04:02:40.903Z,8.17
2019-01-31T04:05:46.674Z,4.90
2019-01-31T04:08:15.898Z,3.72
2019-01-31T04:10:44.050Z,7.60
2019-01-31T04:13:13.255Z,5.23
2019-01-31T04:15:41.841Z,6.43
2019-01-31T04:18:10.022Z,5.17
2019-01-31T04:20:39.447Z,3.37
2019-01-31T04:23:20.998Z,6.17
2019-01-31T04:25:49.379Z,3.07
2019-01-31T04:28:36.949Z,4.17
2019-01-31T04:31:06.096Z,4.50
2019-01-31T04:33:36.621Z,3.08
2019-01-31T04:36:08.974Z,3.27
2019-01-31T04:38:39.131Z,5.03
2019-01-31T04:41:13.957Z,5.20
2019-01-31T04:43:42.524Z,7.47
2019-01-31T04:46:11.741Z,5.80
2019-01-31T04:48:39.890Z,6.07
2019-01-31T04:51:09.110Z,11.27
2019-01-31T04:53:42.659Z,9.73
2019-01-31T04:56:11.811Z,6.57
2019-01-31T04:58:39.968Z,8.13
2019-01-31T05:01:08.151Z,10.67
2019-01-31T05:03:36.688Z,5.43
2019-01-31T05:06:06.351Z,5.17
2019-01-31T05:08:36.688Z,3.90
2019-01-31T05:11:07.384Z,6.10
2019-01-31T05:13:36.594Z,7.63
2019-01-31T05:16:05.877Z,7.72
2019-01-31T05:18:34.153Z,10.00
2019-01-31T05:21:08.398Z,6.67
2019-01-31T05:23:36.854Z,4.50
2019-01-31T05:26:13.639Z,3.97
2019-01-31T05:28:41.830Z,3.63
2019-01-31T05:31:19.803Z,8.90
2019-01-31T05:33:48.519Z,6.95
2019-01-31T05:36:18.136Z,7.73
2019-01-31T05:38:48.530Z,8.05
2019-01-31T05:41:17.715Z,7.07
2019-01-31T05:43:46.932Z,8.13
2019-01-31T05:46:15.168Z,9.17
2019-01-31T05:48:48.397Z,4.90
2019-01-31T05:51:17.587Z,5.93
2019-01-31T05:53:50.445Z,9.63
2019-01-31T05:56:19.733Z,7.92
2019-01-31T05:58:49.887Z,6.70
2019-01-31T06:01:20.381Z,7.37
2019-01-31T06:03:50.542Z,9.43
2019-01-31T06:06:21.038Z,5.17
2019-01-31T06:08:58.264Z,4.83
2019-01-31T06:11:26.425Z,7.93
2019-01-31T06:14:01.178Z,11.23
2019-01-31T06:16:29.573Z,9.13
2019-01-31T06:18:58.839Z,8.10
2019-01-31T06:21:28.273Z,9.23
2019-01-31T06:23:57.690Z,9.13
2019-01-31T06:26:30.331Z,5.67
2019-01-31T06:29:04.273Z,65.60
2019-01-31T06:31:32.392Z,12.80
2019-01-31T06:34:01.598Z,10.30
2019-01-31T06:36:30.853Z,25.83
2019-01-31T06:39:03.057Z,28.03
2019-01-31T06:41:32.245Z,13.47
2019-01-31T06:44:01.834Z,5.10
2019-01-31T06:46:31.053Z,7.50
2019-01-31T06:48:59.230Z,5.97
2019-01-31T06:51:28.421Z,7.53
2019-01-31T06:54:00.585Z,9.50
2019-01-31T06:56:29.796Z,4.43
2019-01-31T06:58:57.968Z,8.27
2019-01-31T07:01:29.358Z,9.73
2019-01-31T07:03:57.484Z,5.33
2019-01-31T07:06:27.009Z,10.27
2019-01-31T07:08:55.172Z,5.30
2019-01-31T07:11:30.203Z,6.93
2019-01-31T07:13:53.126Z,10.80
2019-01-31T07:16:28.448Z,12.40
2019-01-31T07:18:56.696Z,9.40
2019-01-31T07:21:28.976Z,10.67
2019-01-31T07:23:58.214Z,13.27
2019-01-31T07:26:37.668Z,6.90
2019-01-31T07:29:05.890Z,7.60
2019-01-31T07:31:37.868Z,7.13
2019-01-31T07:34:06.558Z,49.17
2019-01-31T07:36:36.830Z,13.60
2019-01-31T07:39:07.819Z,27.20
2019-01-31T07:41:41.538Z,8.30
2019-01-31T07:44:07.282Z,9.73
2019-01-31T07:46:38.508Z,15.00
2019-01-31T07:49:12.813Z,7.40
2019-01-31T07:51:44.573Z,8.17
2019-01-31T07:54:13.444Z,8.15
2019-01-31T07:56:42.646Z,6.90
2019-01-31T07:59:10.881Z,7.23
2019-01-31T08:01:41.141Z,5.87
2019-01-31T08:04:15.759Z,6.23
2019-01-31T08:06:50.235Z,7.73
2019-01-31T08:09:18.452Z,7.73
2019-01-31T08:12:00.528Z,6.93
2019-01-31T08:14:38.093Z,6.73
2019-01-31T08:17:07.399Z,6.47
2019-01-31T08:19:42.433Z,6.23
2019-01-31T08:22:22.724Z,8.27
2019-01-31T08:24:57.004Z,7.87
2019-01-31T08:27:32.170Z,16.42
2019-01-31T08:30:02.300Z,6.67
2019-01-31T08:32:33.918Z,6.37
2019-01-31T08:35:11.095Z,7.50
2019-01-31T08:37:45.407Z,7.30
2019-01-31T08:40:20.630Z,6.03
2019-01-31T08:42:48.850Z,4.43
2019-01-31T08:45:24.108Z,11.43
2019-01-31T08:47:52.793Z,7.80
2019-01-31T08:50:23.989Z,13.10
2019-01-31T08:52:53.443Z,12.43
2019-01-31T08:55:22.611Z,8.27
2019-01-31T08:57:50.813Z,6.00
2019-01-31T09:00:21.091Z,8.27
2019-01-31T09:02:59.123Z,6.73
2019-01-31T09:05:32.454Z,7.50
2019-01-31T09:08:00.551Z,9.50
2019-01-31T09:10:33.440Z,8.77
2019-01-31T09:13:06.321Z,5.37
2019-01-31T09:15:34.506Z,7.20
2019-01-31T09:18:07.108Z,5.47
2019-01-31T09:21:07.339Z,5.97
2019-01-31T09:24:04.913Z,7.77
2019-01-31T09:26:53.510Z,4.90
2019-01-31T09:29:30.621Z,7.80
2019-01-31T09:32:17.056Z,5.73
2019-01-31T09:35:14.403Z,5.50
2019-01-31T09:38:10.277Z,18.23
2019-01-31T09:41:37.531Z,4.87
2019-01-31T09:44:24.264Z,9.40
2019-01-31T09:47:17.908Z,3.83
2019-01-31T09:50:13.347Z,4.20
2019-01-31T09:53:28.811Z,8.40
2019-01-31T09:56:34.911Z,4.47
2019-01-31T09:59:27.717Z,5.43
2019-01-31T10:02:27.189Z,8.77
2019-01-31T10:05:13.026Z,7.37
2019-01-31T10:08:21.986Z,7.33
2019-01-31T10:11:20.711Z,12.10
2019-01-31T10:14:23.079Z,12.57
2019-01-31T10:17:32.482Z,10.93
2019-01-31T10:20:24.672Z,8.30
2019-01-31T10:23:28.137Z,8.33
2019-01-31T10:26:14.177Z,4.57
2019-01-31T10:29:36.928Z,4.63
2019-01-31T10:32:44.274Z,3.07
2019-01-31T10:35:27.889Z,4.23
2019-01-31T10:38:40.165Z,3.73
2019-01-31T10:41:26.973Z,5.70
2019-01-31T10:44:24.539Z,7.53
2019-01-31T10:47:30.510Z,3.03
2019-01-31T10:50:48.855Z,4.40
2019-01-31T10:53:56.342Z,4.83
2019-01-31T10:56:50.359Z,3.70
2019-01-31T10:59:57.095Z,4.00
2019-01-31T11:03:01.822Z,4.57
2019-01-31T11:05:54.298Z,3.53
2019-01-31T11:09:06.242Z,6.20
2019-01-31T11:12:17.171Z,2.30
2019-01-31T11:15:14.194Z,3.07
2019-01-31T11:18:28.993Z,2.07
2019-01-31T11:21:29.238Z,3.27
2019-01-31T11:24:38.006Z,3.77
2019-01-31T11:27:59.385Z,3.77
2019-01-31T11:31:00.644Z,6.53
2019-01-31T11:34:00.595Z,8.77
2019-01-31T11:37:09.745Z,5.00
2019-01-31T11:40:36.225Z,2.83
2019-01-31T11:43:42.234Z,6.80
2019-01-31T11:46:47.385Z,3.60
2019-01-31T11:49:43.488Z,3.83
2019-01-31T11:52:40.757Z,5.03
2019-01-31T11:55:54.382Z,6.12
2019-01-31T11:59:01.590Z,2.80
2019-01-31T12:01:32.227Z,4.80
2019-01-31T12:04:16.788Z,4.93
2019-01-31T12:06:44.855Z,1.83
2019-01-31T12:09:22.141Z,2.53
2019-01-31T12:11:51.564Z,5.13
2019-01-31T12:14:25.667Z,8.03
2019-01-31T12:16:53.838Z,7.50
2019-01-31T12:19:25.238Z,5.60
2019-01-31T12:21:55.721Z,2.90
2019-01-31T12:24:24.280Z,3.60
2019-01-31T12:27:03.937Z,1.97
2019-01-31T12:29:42.261Z,3.23
2019-01-31T12:32:29.232Z,3.72
2019-01-31T12:35:05.474Z,2.13
2019-01-31T12:37:35.944Z,5.80
2019-01-31T12:40:05.354Z,2.53
2019-01-31T12:42:36.711Z,4.60
2019-01-31T12:45:09.595Z,7.33
2019-01-31T12:47:39.823Z,3.13
2019-01-31T12:50:17.166Z,6.00
2019-01-31T12:52:50.388Z,2.97
2019-01-31T12:55:26.160Z,2.93
2019-01-31T12:57:56.356Z,4.53
2019-01-31T13:00:29.193Z,3.43
2019-01-31T13:03:09.922Z,11.27
2019-01-31T13:05:38.360Z,5.57
2019-01-31T13:08:10.849Z,1.47
2019-01-31T13:10:39.045Z,1.53
2019-01-31T13:13:08.245Z,2.07
2019-01-31T13:15:36.409Z,2.20
2019-01-31T13:18:11.452Z,3.53
2019-01-31T13:20:45.957Z,5.10
2019-01-31T13:23:19.863Z,2.27
2019-01-31T13:25:48.454Z,3.17
2019-01-31T13:28:17.948Z,3.90
2019-01-31T13:30:46.146Z,4.63
2019-01-31T13:33:15.322Z,1.90
2019-01-31T13:35:44.550Z,5.57
2019-01-31T13:38:12.776Z,1.77
2019-01-31T13:40:40.907Z,3.17
2019-01-31T13:43:10.336Z,1.97
2019-01-31T13:45:38.524Z,2.97
2019-01-31T13:48:16.387Z,4.47
2019-01-31T13:50:46.873Z,3.17
2019-01-31T13:53:15.076Z,1.70
2019-01-31T13:55:44.285Z,3.80
2019-01-31T13:58:14.410Z,3.13
2019-01-31T14:00:44.586Z,2.77
2019-01-31T14:03:18.720Z,7.53
2019-01-31T14:05:48.178Z,5.67
2019-01-31T14:08:27.226Z,2.87
2019-01-31T14:10:57.863Z,1.47
2019-01-31T14:13:31.885Z,4.73
2019-01-31T14:16:00.091Z,2.97
2019-01-31T14:18:29.248Z,2.30
2019-01-31T14:21:01.656Z,2.00
2019-01-31T14:23:31.073Z,1.57
2019-01-31T14:25:59.324Z,5.53
2019-01-31T14:28:28.511Z,2.63
2019-01-31T14:31:03.718Z,4.97
2019-01-31T14:33:34.421Z,2.33
2019-01-31T14:36:12.713Z,5.13
2019-01-31T14:38:41.224Z,1.57
2019-01-31T14:41:09.618Z,3.07
2019-01-31T14:43:42.193Z,4.33
2019-01-31T14:46:10.664Z,2.00
2019-01-31T14:48:38.835Z,2.00
2019-01-31T14:51:07.051Z,2.03
2019-01-31T14:53:35.209Z,5.60
2019-01-31T14:56:13.030Z,3.43
2019-01-31T14:58:43.007Z,5.67
2019-01-31T15:01:21.047Z,6.03
2019-01-31T15:03:51.534Z,2.23
2019-01-31T15:06:18.715Z,8.87
2019-01-31T15:08:49.446Z,4.03
2019-01-31T15:11:20.948Z,4.47
2019-01-31T15:13:51.117Z,5.87
2019-01-31T15:16:20.314Z,2.83
2019-01-31T15:18:48.521Z,4.03
2019-01-31T15:21:22.723Z,4.70
2019-01-31T15:23:53.199Z,3.13
2019-01-31T15:26:21.724Z,2.07
2019-01-31T15:28:52.955Z,2.90
2019-01-31T15:31:25.334Z,1.63
2019-01-31T15:33:57.803Z,1.93
2019-01-31T15:36:26.574Z,2.00
2019-01-31T15:38:54.811Z,4.50
2019-01-31T15:41:24.994Z,6.23
2019-01-31T15:44:01.216Z,3.60
2019-01-31T15:46:35.252Z,8.80
2019-01-31T15:49:07.717Z,4.20
2019-01-31T15:51:35.928Z,3.03
2019-01-31T15:54:04.799Z,3.53
2019-01-31T15:56:41.233Z,4.17
2019-01-31T15:59:16.320Z,4.50
2019-01-31T16:01:50.552Z,5.25
2019-01-31T16:04:18.940Z,4.43
2019-01-31T16:06:50.246Z,8.20
2019-01-31T16:09:19.439Z,5.87
2019-01-31T16:11:48.021Z,4.30
2019-01-31T16:14:18.171Z,8.13
2019-01-31T16:16:56.446Z,8.67
2019-01-31T16:19:29.279Z,9.37
2019-01-31T16:21:58.446Z,9.47
2019-01-31T16:24:27.631Z,5.67
2019-01-31T16:27:01.933Z,5.97
2019-01-31T16:29:31.549Z,7.30
2019-01-31T16:32:00.646Z,6.97
2019-01-31T16:34:28.827Z,5.03
2019-01-31T16:36:58.015Z,3.27
2019-01-31T16:39:27.510Z,9.53
2019-01-31T16:41:55.970Z,9.07
2019-01-31T16:44:25.207Z,18.13
2019-01-31T16:46:54.166Z,19.13
2019-01-31T16:49:23.389Z,26.73
2019-01-31T16:52:01.389Z,25.10
2019-01-31T16:54:36.703Z,19.83
2019-01-31T16:57:07.961Z,15.87
2019-01-31T16:59:40.385Z,15.60
2019-01-31T17:02:14.127Z,15.73
2019-01-31T17:04:59.833Z,16.70
2019-01-31T17:07:31.073Z,13.17
2019-01-31T17:09:59.535Z,14.17
2019-01-31T17:12:29.687Z,12.83
2019-01-31T17:14:59.155Z,7.57
2019-01-31T17:17:28.355Z,12.23
2019-01-31T17:19:57.585Z,8.77
2019-01-31T17:22:25.797Z,10.07
2019-01-31T17:24:54.197Z,16.67
2019-01-31T17:27:22.433Z,21.17
2019-01-31T17:29:50.587Z,18.90
2019-01-31T17:32:19.154Z,19.53
2019-01-31T17:34:48.682Z,15.67
2019-01-31T17:37:16.896Z,16.37
2019-01-31T17:39:46.144Z,16.27
2019-01-31T17:42:15.394Z,16.77
2019-01-31T17:44:43.623Z,14.23
2019-01-31T17:47:12.739Z,12.40
2019-01-31T17:49:40.905Z,11.37
2019-01-31T17:52:09.062Z,11.50
2019-01-31T17:54:37.247Z,12.90
2019-01-31T17:57:05.754Z,12.33
2019-01-31T18:39:15.029Z,70.35
2019-01-31T18:49:16.427Z,50.75
2019-01-31T18:51:45.388Z,65.65
2019-01-31T18:54:18.838Z,52.43
2019-01-31T18:56:47.253Z,45.58
2019-01-31T18:59:15.238Z,48.13
2019-01-31T19:01:43.207Z,45.20
2019-01-31T19:04:12.255Z,42.15
2019-01-31T19:06:41.199Z,46.10
2019-01-31T19:09:09.182Z,43.00
2019-01-31T19:11:39.172Z,41.80
2019-01-31T19:14:07.452Z,43.40
2019-01-31T19:16:36.445Z,43.28
2019-01-31T19:19:04.448Z,41.02
2019-01-31T19:21:32.378Z,41.65
2019-01-31T19:24:04.650Z,39.67
2019-01-31T19:26:32.898Z,39.18
2019-01-31T19:29:01.403Z,40.63
2019-01-31T19:31:29.385Z,37.80
2019-01-31T19:33:58.382Z,44.63
2019-01-31T19:36:26.871Z,38.13
2019-01-31T19:38:55.126Z,37.40
2019-01-31T19:41:23.091Z,35.70
2019-01-31T19:43:51.076Z,39.00
2019-01-31T19:46:19.086Z,37.90
2019-01-31T19:48:46.986Z,37.30
2019-01-31T19:51:14.976Z,36.40
2019-01-31T19:53:43.945Z,35.52
2019-01-31T19:56:11.935Z,34.83
2019-01-31T19:58:41.850Z,31.77
2019-01-31T20:01:10.012Z,27.30
2019-01-31T20:03:38.302Z,33.35
2019-01-31T20:06:09.337Z,29.45
2019-01-31T20:08:38.000Z,33.48
2019-01-31T20:11:06.007Z,28.52
2019-01-31T20:13:33.954Z,29.77
2019-01-31T20:16:03.922Z,28.98
2019-01-31T20:18:35.923Z,28.90
2019-01-31T20:21:03.950Z,30.60
2019-01-31T20:23:32.164Z,28.75
2019-01-31T20:26:00.869Z,29.10
2019-01-31T20:28:29.885Z,27.87
2019-01-31T20:30:58.850Z,29.23
2019-01-31T20:33:31.203Z,28.85
2019-01-31T20:35:59.199Z,28.05
2019-01-31T20:38:28.178Z,25.80
2019-01-31T20:40:56.163Z,26.93
2019-01-31T20:43:24.116Z,28.80
2019-01-31T20:45:54.050Z,29.23
2019-01-31T20:48:23.034Z,25.60
2019-01-31T20:50:50.934Z,23.05
2019-01-31T20:53:18.883Z,24.65
2019-01-31T20:55:46.837Z,22.87
2019-01-31T20:58:14.823Z,28.30
2019-01-31T21:00:47.187Z,26.27
2019-01-31T21:03:15.138Z,24.15
2019-01-31T21:05:43.103Z,25.10
2019-01-31T21:08:12.578Z,22.30
2019-01-31T21:10:40.586Z,24.52
2019-01-31T21:13:08.810Z,22.65
2019-01-31T21:15:36.743Z,20.68
2019-01-31T21:18:05.237Z,19.87
2019-01-31T21:20:33.165Z,21.25
2019-01-31T21:23:01.432Z,21.55
2019-01-31T21:25:29.409Z,19.20
2019-01-31T21:27:57.391Z,20.52
2019-01-31T21:30:33.045Z,21.48
2019-01-31T21:33:01.021Z,20.43
2019-01-31T21:35:29.449Z,18.95
2019-01-31T21:37:57.600Z,20.08
2019-01-31T21:40:28.656Z,18.45
2019-01-31T21:42:59.071Z,19.90
2019-01-31T21:45:28.012Z,19.10
2019-01-31T21:47:56.400Z,28.45
2019-01-31T21:52:07.648Z,15.05
2019-01-31T21:54:35.854Z,14.73
2019-01-31T21:57:04.013Z,12.78
2019-01-31T21:59:32.579Z,11.08
2019-01-31T22:02:29.664Z,11.73
2019-01-31T22:04:58.844Z,12.63
2019-01-31T22:07:28.093Z,9.33
2019-01-31T22:09:56.526Z,13.03
2019-01-31T22:12:28.595Z,12.28
2019-01-31T22:22:16.337Z,11.48
2019-01-31T22:24:45.179Z,12.53
2019-01-31T22:31:19.946Z,9.07
2019-01-31T22:33:49.503Z,12.45
2019-01-31T22:36:21.784Z,10.93
2019-01-31T22:38:53.094Z,10.73
2019-01-31T22:41:21.336Z,13.13
2019-01-31T22:43:49.504Z,9.50
2019-01-31T22:46:17.699Z,8.23
2019-01-31T22:48:45.926Z,10.50
2019-01-31T22:51:14.118Z,11.22
2019-01-31T22:53:42.277Z,8.35
2019-01-31T22:56:10.749Z,8.23
2019-01-31T22:58:39.967Z,8.98
2019-01-31T23:01:40.350Z,8.48
2019-01-31T23:04:08.966Z,9.28
2019-01-31T23:06:37.148Z,9.60
2019-01-31T23:09:11.106Z,8.28
2019-01-31T23:11:39.384Z,8.85
2019-01-31T23:14:07.599Z,8.98
2019-01-31T23:16:36.823Z,11.57
2019-01-31T23:19:05.628Z,7.40
2019-01-31T23:21:33.875Z,11.80
2019-01-31T23:24:06.211Z,7.42
2019-01-31T23:26:37.327Z,8.90
2019-01-31T23:29:06.096Z,7.83
2019-01-31T23:31:34.533Z,9.55
2019-01-31T23:34:03.899Z,8.25
2019-01-31T23:36:32.623Z,7.80
2019-01-31T23:39:02.849Z,7.65
2019-01-31T23:41:31.036Z,7.90
2019-01-31T23:44:00.229Z,7.87
2019-01-31T23:46:29.529Z,8.23
2019-01-31T23:48:57.999Z,6.30
2019-01-31T23:51:26.185Z,8.53
2019-01-31T23:53:54.846Z,7.35
2019-01-31T23:56:23.050Z,5.70
2019-01-31T23:58:51.285Z,6.40
